createdAt,value
2017-05-30T15:02:59.178Z,45.40
2017-05-30T15:05:27.465Z,45.50
2017-05-30T15:07:55.884Z,45.50
2017-05-30T15:10:24.194Z,46.30
2017-05-30T15:12:52.448Z,45.40
2017-05-30T15:15:20.710Z,46.30
2017-05-30T15:17:48.980Z,46.60
2017-05-30T15:20:17.234Z,46.30
2017-05-30T15:22:45.490Z,46.30
2017-05-30T15:25:13.767Z,45.70
2017-05-30T15:27:42.018Z,46.10
2017-05-30T15:30:10.273Z,45.60
2017-05-30T15:32:38.537Z,44.70
2017-05-30T15:35:06.781Z,45.80
2017-05-30T15:37:35.937Z,46.20
2017-05-30T15:40:04.211Z,46.00
2017-05-30T15:42:32.458Z,46.30
2017-05-30T15:45:00.709Z,43.80
2017-05-30T15:47:28.986Z,45.00
2017-05-30T15:49:57.237Z,45.00
2017-05-30T15:52:25.489Z,44.40
2017-05-30T15:54:53.757Z,44.10
2017-05-30T15:57:22.010Z,42.70
2017-05-30T15:59:50.262Z,43.20
2017-05-30T16:02:18.935Z,43.50
2017-05-30T16:04:47.183Z,44.20
2017-05-30T16:07:15.442Z,44.20
2017-05-30T16:09:43.713Z,43.40
2017-05-30T16:12:11.963Z,43.70
2017-05-30T16:14:40.214Z,44.80
2017-05-30T16:17:08.482Z,45.00
2017-05-30T16:19:36.730Z,45.80
2017-05-30T16:22:04.982Z,45.80
2017-05-30T16:24:33.253Z,45.80
2017-05-30T16:27:01.509Z,46.40
2017-05-30T16:29:29.758Z,46.40
2017-05-30T16:31:58.034Z,46.20
2017-05-30T16:34:26.285Z,45.70
2017-05-30T16:36:54.585Z,45.70
2017-05-30T16:39:23.082Z,45.30
2017-05-30T16:41:51.326Z,44.90
2017-05-30T16:44:19.581Z,45.30
2017-05-30T16:46:47.850Z,45.10
2017-05-30T16:49:16.103Z,45.40
2017-05-30T16:51:44.353Z,45.50
2017-05-30T16:54:12.625Z,45.50
2017-05-30T16:56:40.877Z,45.60
2017-05-30T16:59:09.125Z,47.50
2017-05-30T17:01:37.393Z,47.20
2017-05-30T17:04:05.642Z,47.60
2017-05-30T17:06:33.890Z,48.40
2017-05-30T17:09:02.162Z,48.50
2017-05-30T17:11:30.411Z,48.10
2017-05-30T17:13:58.659Z,48.80
2017-05-30T17:16:26.927Z,49.60
2017-05-30T17:18:55.173Z,49.40
2017-05-30T17:21:23.424Z,50.80
2017-05-30T17:23:51.700Z,51.10
2017-05-30T17:26:19.950Z,51.00
2017-05-30T17:28:48.198Z,49.80
2017-05-30T17:31:16.467Z,49.70
2017-05-30T17:33:44.714Z,50.10
2017-05-30T17:36:12.968Z,50.40
2017-05-30T17:38:41.239Z,50.50
2017-05-30T17:41:09.493Z,51.30
2017-05-30T17:43:37.826Z,51.60
2017-05-30T17:46:06.118Z,51.90
2017-05-30T17:48:34.363Z,52.10
2017-05-30T17:51:02.611Z,52.40
2017-05-30T17:53:30.882Z,53.30
2017-05-30T17:55:59.126Z,53.70
2017-05-30T17:58:27.369Z,54.10
2017-05-30T18:00:55.637Z,54.30
2017-05-30T18:03:23.890Z,54.30
2017-05-30T18:05:52.138Z,54.50
2017-05-30T18:08:20.421Z,55.60
2017-05-30T18:10:48.902Z,55.30
2017-05-30T18:13:17.150Z,56.30
2017-05-30T18:15:45.450Z,56.00
2017-05-30T18:18:13.700Z,56.00
2017-05-30T18:20:41.954Z,56.10
2017-05-30T18:23:10.226Z,56.40
2017-05-30T18:25:38.475Z,56.50
2017-05-30T18:28:06.725Z,56.60
2017-05-30T18:30:34.998Z,56.70
2017-05-30T18:33:03.246Z,57.00
2017-05-30T18:35:31.499Z,57.30
2017-05-30T18:37:59.769Z,57.70
2017-05-30T18:40:28.021Z,57.80
2017-05-30T18:42:56.270Z,57.90
2017-05-30T18:45:24.546Z,58.30
2017-05-30T18:47:52.806Z,58.60
2017-05-30T18:50:21.311Z,58.50
2017-05-30T18:52:49.583Z,59.10
2017-05-30T18:55:17.867Z,59.60
2017-05-30T18:57:46.158Z,59.90
2017-05-30T19:00:14.433Z,60.30
2017-05-30T19:02:42.685Z,60.70
2017-05-30T19:05:10.940Z,60.90
2017-05-30T19:07:39.451Z,60.80
2017-05-30T19:10:07.709Z,61.00
2017-05-30T19:12:35.966Z,61.90
2017-05-30T19:15:04.254Z,62.70
2017-05-30T19:17:32.510Z,63.00
2017-05-30T19:20:00.766Z,63.70
2017-05-30T19:22:29.080Z,63.90
2017-05-30T19:24:57.368Z,64.50
2017-05-30T19:27:25.627Z,64.30
2017-05-30T19:29:53.943Z,64.20
2017-05-30T19:32:22.239Z,64.50
2017-05-30T19:34:50.531Z,64.90
2017-05-30T19:37:20.178Z,65.10
2017-05-30T19:39:48.483Z,66.10
2017-05-30T19:42:16.738Z,66.30
2017-05-30T19:44:45.014Z,66.00
2017-05-30T19:47:13.274Z,66.70
2017-05-30T19:49:41.530Z,66.70
2017-05-30T19:52:09.815Z,66.90
2017-05-30T19:54:38.074Z,67.50
2017-05-30T19:57:06.334Z,67.30
2017-05-30T19:59:34.635Z,67.50
2017-05-30T20:02:02.890Z,67.60
2017-05-30T20:04:31.145Z,68.20
2017-05-30T20:06:59.421Z,68.00
2017-05-30T20:09:27.677Z,68.30
2017-05-30T20:11:55.931Z,68.40
2017-05-30T20:14:24.206Z,68.50
2017-05-30T20:16:52.461Z,68.60
2017-05-30T20:19:20.714Z,69.20
2017-05-30T20:21:49.036Z,69.90
2017-05-30T20:24:17.309Z,70.20
2017-05-30T20:26:45.649Z,70.40
2017-05-30T20:29:14.185Z,70.60
2017-05-30T20:31:42.443Z,70.80
2017-05-30T20:34:10.699Z,71.50
2017-05-30T20:36:38.975Z,71.40
2017-05-30T20:39:07.230Z,71.50
2017-05-30T20:41:35.486Z,71.80
2017-05-30T20:44:03.766Z,71.80
2017-05-30T20:46:32.030Z,72.10
2017-05-30T20:49:00.287Z,72.70
2017-05-30T20:51:28.618Z,72.50
2017-05-30T20:53:56.874Z,72.90
2017-05-30T20:56:25.125Z,72.90
2017-05-30T20:58:53.405Z,73.60
2017-05-30T21:01:21.679Z,74.40
2017-05-30T21:03:49.947Z,74.90
2017-05-30T21:06:18.245Z,75.60
2017-05-30T21:08:46.499Z,76.30
2017-05-30T21:11:14.971Z,76.60
2017-05-30T21:13:43.258Z,76.70
2017-05-30T21:16:11.514Z,76.70
2017-05-30T21:18:39.766Z,76.70
2017-05-30T21:21:08.042Z,76.70
2017-05-30T21:23:36.304Z,76.70
2017-05-30T21:26:04.557Z,76.60
2017-05-30T21:28:32.833Z,76.50
2017-05-30T21:31:01.086Z,76.20
2017-05-30T21:33:29.346Z,76.90
2017-05-30T21:35:57.625Z,76.80
2017-05-30T21:38:25.882Z,76.60
2017-05-30T21:40:54.137Z,76.40
2017-05-30T21:43:22.415Z,76.50
2017-05-30T21:45:50.672Z,76.80
2017-05-30T21:48:19.209Z,77.80
2017-05-30T21:50:47.485Z,78.10
2017-05-30T21:53:15.737Z,78.90
2017-05-30T21:55:44.090Z,79.90
2017-05-30T21:58:12.365Z,80.10
2017-05-30T22:00:40.617Z,80.50
2017-05-30T22:03:08.878Z,80.50
2017-05-30T22:05:37.157Z,80.50
2017-05-30T22:08:05.417Z,80.40
2017-05-30T22:10:33.674Z,80.30
2017-05-30T22:13:01.954Z,80.10
2017-05-30T22:15:30.205Z,80.30
2017-05-30T22:17:58.461Z,80.50
2017-05-30T22:20:27.054Z,80.40
2017-05-30T22:22:55.305Z,80.50
2017-05-30T22:25:23.562Z,80.50
2017-05-30T22:27:51.838Z,80.40
2017-05-30T22:30:20.091Z,79.90
2017-05-30T22:32:48.345Z,79.50
2017-05-30T22:35:16.617Z,79.40
2017-05-30T22:37:44.869Z,79.40
2017-05-30T22:40:13.121Z,79.50
2017-05-30T22:42:41.397Z,79.20
2017-05-30T22:45:09.649Z,79.30
2017-05-30T22:47:37.901Z,79.60
2017-05-30T22:50:06.174Z,80.00
2017-05-30T22:52:34.428Z,80.40
2017-05-30T22:55:02.686Z,81.30
2017-05-30T22:57:30.961Z,82.00
2017-05-30T22:59:59.258Z,82.80
2017-05-30T23:02:27.518Z,82.90
2017-05-30T23:04:55.811Z,82.70
2017-05-30T23:07:24.066Z,82.60
2017-05-30T23:09:52.326Z,82.60
2017-05-30T23:12:20.942Z,82.00
2017-05-30T23:14:49.198Z,81.80
2017-05-30T23:17:17.457Z,81.80
2017-05-30T23:19:45.730Z,81.80
2017-05-30T23:22:13.985Z,82.00
2017-05-30T23:24:42.237Z,82.00
2017-05-30T23:27:10.514Z,82.00
2017-05-30T23:29:39.207Z,82.20
2017-05-30T23:32:07.465Z,81.90
2017-05-30T23:34:35.737Z,81.80
2017-05-30T23:37:03.990Z,82.20
2017-05-30T23:39:32.246Z,82.30
2017-05-30T23:42:00.529Z,82.60
2017-05-30T23:44:28.782Z,82.50
2017-05-30T23:46:57.034Z,82.70
2017-05-30T23:49:25.329Z,83.20
2017-05-30T23:51:53.581Z,83.10
2017-05-30T23:54:21.946Z,82.50
2017-05-30T23:56:50.217Z,83.30
2017-05-30T23:59:18.470Z,83.20
